Detall de PIREP

Printer-friendly versionPDF version

[2014/06/02 11:02:00]
Flight IATA:CT2200
Pilot Number:042
Company ICAO:CAT
Aircraft Type:F100/A
PAX:48
Aircraft Registration:PFJ
Departing Airport: LFMP
Destination Airport: LFOH
Alternate Airport:LFPB
Online: VATSIM
Route:ORBIL/N0300F180 G36 GAI/N0300F280 UT186 PERIG UY156 ADABI UN858 VANAD/N0300F180 A34 DVL
Flight Level:F280
No Slew and time accel
No pause
Crash detect
Detect pilot in Cockpit between each 30 and 45 minutes
11:02 Zero fuel Weight: 81824 Lbs, Fuel Weight: 15959 Lbs
11:02 VATSIM:LFMP 021030Z 32019KT 9999 FEW060 23/09 Q1018 NOSIG
11:02 VATSIM:LFOH 021030Z AUTO 26006KT 230V310 9999 BKN008 BKN012 OVC035 15/12 Q1020
11:04 Parking Brakes off
11:07 Take-off
11:07 Take off Weight: 97397 Lbs
11:07 Wind: 319º @ 019 Knots Heading: 327º
11:07 POS N42º 44´ 49´´ E002º 52´ 03´´
11:07 Gear Up: 167 Knots
11:07 Flaps:2 at 167 Knots
11:08 Flaps:1 at 145 Knots
11:08 Flaps:0 at 146 Knots
11:22 Wind:279º@034 Knots Heading: 323º Ground Speed: 405 Knots Altitude 23038 ft
11:26 TOC
11:26 Fuel Weight: 13031 Lb
11:37 Wind:322º@016 Knots Heading: 331º Ground Speed: 456 Knots Altitude 28221 ft
11:52 Wind:309º@028 Knots Heading: 000º Ground Speed: 452 Knots Altitude 28202 ft
12:02 TOD
12:02 Fuel Weight: 9526 Lb
12:07 Wind:296º@014 Knots Heading: 342º Ground Speed: 270 Knots Altitude 15616 ft
12:19 Flaps:1 at 202 Knots
12:20 Flaps:2 at 190 Knots
12:22 Wind:295º@008 Knots Heading: 221º Ground Speed: 186 Knots Altitude 2903 ft
12:22 Gear Down: 181 Knots
12:22 Flaps:3 at 181 Knots
12:24 TouchDown:Rate -162 ft/min Speed: 142 Knots
12:25 VATSIM:LFOH 021200Z AUTO 29007KT 250V320 9999 FEW029 SCT082 BKN210 16/11 Q1020
12:25 Land
12:25 Wind:290º@007 Knots
12:25 Heading: 227º
12:25 Flight Duration: 01:18
12:25 Landing Weight: 89672 Lbs
12:25 POS N49º 31´ 52´´ E000º 05´ 03´´
12:27 Parking brakes on
12:27 Block to Block Duration: 01:23
12:27 Final Fuel: 7676 Lbls
12:27 Spent Fuel: 8282 Lbls
12:27 Flight Length: 466 NM
12:27 TOD Land Length: 88 NM

Exportar CSV

Powered by Drupal - Modified by Danger4k